»·PEaware :: N3610E KSBA-KIZA

N3610E :: KSBA-KIZA

FLIGHT INFORMATION

Flight Status: Arrived
Operator: Privately registered:
United States
More flights under this callsign
Pilot: John C. (12173)
Aircraft: CESSNA 172 SKYHAWK
(C172)
More flights by this aircraft type
Origin: KSBA Santa Barbara Mun
United States
Destination: KIZA Santa Ynez
United States
More flights between these airports :: More routes between these airports
Route: +HABUT4 GVO
File this flight plan on PilotEdge
Remarks:
Altitude:
(Current/Filed)
4,000ft
Speed:
(Current/Filed)
100kts
Departed: 06-Jan-18 09:05 PM
Arrived: 06-Jan-18 09:46 PM
Distance/Time
Traveled:
16nm/0:41
Distance/Time
To Go:
Arrived

Flight Plot

Page will automatically refresh every two minutes.

Flight plan parsing failed; only flown route is shown


Map Options




Map Legend


Flown Route
Filed Route
Departure Airport
Arrival Airport
Navaid (VOR, NDB)
Fix

Horizontal Profiles

Position Reports

Time Latitude Longitude Heading Altitude Ground
Speed
06-Jan-18 21:00 34.432567 -119.835092 71 14ft 0kts
06-Jan-18 21:01 34.432567 -119.835092 71 14ft 0kts
06-Jan-18 21:02 34.432567 -119.835092 71 14ft 0kts
06-Jan-18 21:03 34.432567 -119.835092 71 14ft 0kts
06-Jan-18 21:04 34.432567 -119.835092 71 14ft 0kts
06-Jan-18 21:05 34.432567 -119.835092 71 14ft 0kts
06-Jan-18 21:06 34.432568 -119.835091 71 14ft 0kts
06-Jan-18 21:07 34.431241 -119.838001 252 13ft 22kts
06-Jan-18 21:08 34.430746 -119.839665 249 12ft 0kts
06-Jan-18 21:09 34.430746 -119.839665 249 12ft 0kts
06-Jan-18 21:10 34.430303 -119.840223 177 11ft 5kts
06-Jan-18 21:11 34.425600 -119.838772 164 24ft 82kts
06-Jan-18 21:12 34.410258 -119.846653 292 1112ft 88kts
06-Jan-18 21:13 34.426655 -119.862383 292 2229ft 83kts
06-Jan-18 21:14 34.425904 -119.890367 264 3227ft 86kts
06-Jan-18 21:15 34.425525 -119.919825 273 3964ft 105kts
06-Jan-18 21:16 34.424853 -119.956406 271 3985ft 110kts
06-Jan-18 21:17 34.424152 -119.993339 271 3970ft 109kts
06-Jan-18 21:18 34.422915 -120.030219 275 3956ft 109kts
06-Jan-18 21:19 34.421997 -120.067021 271 3966ft 109kts
06-Jan-18 21:20 34.421829 -120.097635 271 3995ft 109kts
06-Jan-18 21:21 34.422721 -120.140188 298 4009ft 109kts
06-Jan-18 21:22 34.443838 -120.137306 38 4031ft 108kts
06-Jan-18 21:23 34.472021 -120.112635 35 4104ft 107kts
06-Jan-18 21:24 34.491979 -120.094390 29 4331ft 107kts
06-Jan-18 21:25 34.525388 -120.091289 3 4924ft 105kts
06-Jan-18 21:26 34.549434 -120.092433 350 5312ft 105kts
06-Jan-18 21:27 34.578053 -120.092511 0 5790ft 105kts
06-Jan-18 21:28 34.607975 -120.093200 332 5875ft 115kts
06-Jan-18 21:29 34.600942 -120.119889 183 6046ft 126kts
06-Jan-18 21:30 34.565124 -120.121111 188 6087ft 128kts
06-Jan-18 21:31 34.528898 -120.120701 181 6108ft 129kts
06-Jan-18 21:32 34.493969 -120.113608 127 5990ft 138kts
06-Jan-18 21:33 34.509065 -120.091184 359 6076ft 111kts
06-Jan-18 21:34 34.534279 -120.107411 310 5738ft 113kts
06-Jan-18 21:35 34.554124 -120.136716 305 5346ft 109kts
06-Jan-18 21:36 34.569946 -120.168312 302 5172ft 107kts
06-Jan-18 21:37 34.584414 -120.199677 304 5112ft 106kts
06-Jan-18 21:38 34.599399 -120.230202 302 5114ft 105kts
06-Jan-18 21:39 34.613202 -120.261633 300 5109ft 105kts
06-Jan-18 21:40 34.629410 -120.290848 303 5119ft 104kts
06-Jan-18 21:41 34.648364 -120.316707 320 5005ft 105kts
06-Jan-18 21:42 34.671283 -120.337966 302 4569ft 107kts
06-Jan-18 21:43 34.653382 -120.354463 142 4035ft 122kts
06-Jan-18 21:44 34.641215 -120.318112 116 3720ft 115kts
06-Jan-18 21:45 34.626287 -120.283978 99 3460ft 114kts
06-Jan-18 21:46 34.623695 -120.246296 89 3385ft 111kts
06-Jan-18 21:47 34.622599 -120.208891 95 3146ft 111kts
06-Jan-18 21:48 34.618316 -120.172171 104 2589ft 110kts
06-Jan-18 21:49 34.613931 -120.136046 96 1805ft 106kts
06-Jan-18 21:50 34.609958 -120.102239 96 1096ft 95kts
06-Jan-18 21:51 34.606996 -120.077043 96 660ft 47kts
06-Jan-18 21:52 34.607607 -120.074517 281 663ft 10kts
06-Jan-18 21:53 34.607567 -120.075895 204 662ft 0kts
06-Jan-18 21:54 34.607567 -120.075895 204 662ft 0kts
06-Jan-18 21:55 34.607567 -120.075895 204 662ft 0kts

Navigation Log

Ident Type
Flight plan parsing failed, navigation log unavailable